createdAt,value
2018-01-28T03:38:34.534Z,1016.32
2018-01-28T03:39:15.137Z,1016.34
2018-01-28T03:39:55.716Z,1016.34
2018-01-28T03:40:36.301Z,1016.42
2018-01-28T03:41:16.872Z,1016.41
2018-01-28T03:41:57.469Z,1016.29
2018-01-28T03:42:38.047Z,1016.33
2018-01-28T03:43:18.649Z,1016.26
2018-01-28T03:43:59.274Z,1016.21
2018-01-28T03:44:39.846Z,1016.2
2018-01-28T03:45:20.463Z,1016.3
2018-01-28T03:46:01.060Z,1016.16
2018-01-28T03:46:41.655Z,1016.18
2018-01-28T03:47:22.290Z,1016.18
2018-01-28T03:48:02.890Z,1016.25
2018-01-28T03:48:43.478Z,1016.19
2018-01-28T03:49:24.063Z,1016.19
2018-01-28T03:50:04.682Z,1016.23
2018-01-28T03:50:45.301Z,1016.26
2018-01-28T03:51:25.917Z,1016.36
2018-01-28T03:52:06.499Z,1016.28
2018-01-28T03:52:47.081Z,1016.26
2018-01-28T03:53:27.691Z,1016.38
2018-01-28T03:54:08.307Z,1016.29
2018-01-28T03:54:48.903Z,1016.3
2018-01-28T03:55:29.527Z,1016.3
2018-01-28T03:56:10.123Z,1016.2
2018-01-28T03:56:50.734Z,1016.28
2018-01-28T03:57:31.329Z,1016.22
2018-01-28T03:58:11.921Z,1016.19
2018-01-28T03:58:52.509Z,1016.19
2018-01-28T03:59:33.122Z,1016.2
2018-01-28T04:00:13.737Z,1016.24
2018-01-28T04:00:54.365Z,1016.22
2018-01-28T04:01:34.983Z,1016.19
2018-01-28T04:02:15.589Z,1016.2
2018-01-28T04:02:56.201Z,1016.15
2018-01-28T04:03:36.823Z,1016.2
2018-01-28T04:04:17.429Z,1016.14
2018-01-28T04:04:58.045Z,1016.24
2018-01-28T04:05:38.635Z,1016.15
2018-01-28T04:06:19.314Z,1016.18
2018-01-28T04:06:59.871Z,1016.13
2018-01-28T04:07:40.472Z,1016.1
2018-01-28T04:08:21.104Z,1016.13
2018-01-28T04:09:01.734Z,1016.18
2018-01-28T04:09:42.373Z,1016.17
2018-01-28T04:10:23.021Z,1016.19
2018-01-28T04:11:03.617Z,1016.13
2018-01-28T04:11:44.267Z,1016.21
2018-01-28T04:12:24.846Z,1016.26
2018-01-28T04:13:05.465Z,1016.19
2018-01-28T04:13:46.124Z,1016.27
2018-01-28T04:14:26.723Z,1016.25
2018-01-28T04:15:07.326Z,1016.25
2018-01-28T04:15:47.953Z,1016.26
2018-01-28T04:16:28.556Z,1016.25
2018-01-28T04:17:09.147Z,1016.27
2018-01-28T04:17:49.751Z,1016.3
2018-01-28T04:18:30.345Z,1016.37
2018-01-28T04:19:10.954Z,1016.35
2018-01-28T04:19:51.557Z,1016.31
2018-01-28T04:20:32.184Z,1016.33
2018-01-28T04:21:12.766Z,1016.31
2018-01-28T04:21:53.360Z,1016.26
2018-01-28T04:22:33.951Z,1016.22
2018-01-28T04:23:14.538Z,1016.28
2018-01-28T04:23:55.143Z,1016.29
2018-01-28T04:24:35.724Z,1016.26
2018-01-28T04:25:16.366Z,1016.3
2018-01-28T04:25:57.002Z,1016.24
2018-01-28T04:26:37.610Z,1016.31
2018-01-28T04:27:18.249Z,1016.24
2018-01-28T04:27:58.857Z,1016.24
2018-01-28T04:28:39.460Z,1016.29
2018-01-28T04:29:20.062Z,1016.27
2018-01-28T04:30:00.654Z,1016.23
2018-01-28T04:30:41.243Z,1016.18
2018-01-28T04:31:21.861Z,1016.28
2018-01-28T04:32:02.526Z,1016.03
2018-01-28T04:32:43.140Z,1016.2
2018-01-28T04:33:23.746Z,1016.19
2018-01-28T04:34:04.333Z,1016.15
2018-01-28T04:34:44.928Z,1016.28
2018-01-28T04:35:25.541Z,1016.32
2018-01-28T04:36:06.134Z,1016.31
2018-01-28T04:36:46.725Z,1016.31
2018-01-28T04:37:27.339Z,1016.34
2018-01-28T04:38:07.935Z,1016.33
2018-01-28T04:38:48.500Z,1016.46
2018-01-28T04:39:29.116Z,1016.44
2018-01-28T04:40:09.689Z,1016.48
2018-01-28T04:40:50.293Z,1016.44
2018-01-28T04:41:30.917Z,1016.5
2018-01-28T04:42:11.529Z,1016.54
2018-01-28T04:42:52.136Z,1016.44
2018-01-28T04:43:32.777Z,1016.48
2018-01-28T04:44:13.408Z,1016.41
2018-01-28T04:44:54.011Z,1016.45
2018-01-28T04:45:34.646Z,1016.48
2018-01-28T04:46:15.213Z,1016.41
2018-01-28T04:46:55.835Z,1016.4
2018-01-28T04:47:36.405Z,1016.44
2018-01-28T04:48:17.012Z,1016.44
2018-01-28T04:48:57.624Z,1016.5
2018-01-28T04:49:38.231Z,1016.49
2018-01-28T04:50:18.815Z,1016.46
2018-01-28T04:50:59.437Z,1016.45
2018-01-28T04:51:40.012Z,1016.45
2018-01-28T04:52:20.621Z,1016.44
2018-01-28T04:53:01.221Z,1016.5
2018-01-28T04:53:41.815Z,1016.48
2018-01-28T04:54:22.452Z,1016.47
2018-01-28T04:55:03.070Z,1016.48
2018-01-28T04:55:43.701Z,1016.52
2018-01-28T04:56:24.297Z,1016.42
2018-01-28T04:57:04.890Z,1016.48
2018-01-28T04:57:45.484Z,1016.53
2018-01-28T04:58:26.106Z,1016.54
2018-01-28T04:59:06.726Z,1016.49
2018-01-28T04:59:47.332Z,1016.48
2018-01-28T05:00:27.966Z,1016.47
2018-01-28T05:01:08.537Z,1016.42
2018-01-28T05:01:49.125Z,1016.46
2018-01-28T05:02:29.794Z,1016.51
2018-01-28T05:03:10.373Z,1016.47
2018-01-28T05:03:51.000Z,1016.57
2018-01-28T05:04:31.551Z,1016.51
2018-01-28T05:05:12.162Z,1016.53
2018-01-28T05:05:52.739Z,1016.44
2018-01-28T05:06:33.354Z,1016.43
2018-01-28T05:07:13.937Z,1016.45
2018-01-28T05:07:54.510Z,1016.45
2018-01-28T05:08:35.096Z,1016.51
2018-01-28T05:09:15.711Z,1016.58
2018-01-28T05:09:56.300Z,1016.66
2018-01-28T05:10:36.891Z,1016.65
2018-01-28T05:11:17.457Z,1016.65
2018-01-28T05:11:58.122Z,1016.69
2018-01-28T05:12:38.692Z,1016.65
2018-01-28T05:13:19.261Z,1016.7
2018-01-28T05:13:59.837Z,1016.68
2018-01-28T05:14:40.415Z,1016.6
2018-01-28T05:15:21.016Z,1016.64
2018-01-28T05:16:01.641Z,1016.48
2018-01-28T05:16:42.215Z,1016.51
2018-01-28T05:17:22.782Z,1016.46
2018-01-28T05:18:03.373Z,1016.57
2018-01-28T05:18:43.950Z,1016.57
2018-01-28T05:19:24.548Z,1016.56
2018-01-28T05:20:05.103Z,1016.53
2018-01-28T05:20:45.683Z,1016.54
2018-01-28T05:21:26.270Z,1016.62
2018-01-28T05:22:06.862Z,1016.62
2018-01-28T05:22:47.473Z,1016.69
2018-01-28T05:23:28.068Z,1016.68
2018-01-28T05:24:08.634Z,1016.7
2018-01-28T05:24:49.228Z,1016.62
2018-01-28T05:25:29.839Z,1016.63
2018-01-28T05:26:10.418Z,1016.59
2018-01-28T05:26:51.052Z,1016.62
2018-01-28T05:27:31.630Z,1016.73
2018-01-28T05:28:12.234Z,1016.7
2018-01-28T05:28:52.793Z,1016.68
2018-01-28T05:29:33.369Z,1016.62
2018-01-28T05:30:13.941Z,1016.54
2018-01-28T05:30:54.550Z,1016.55
2018-01-28T05:31:35.152Z,1016.64
2018-01-28T05:32:15.754Z,1016.66
2018-01-28T05:32:56.343Z,1016.67
2018-01-28T05:33:36.938Z,1016.79
2018-01-28T05:34:17.530Z,1016.69
2018-01-28T05:34:58.143Z,1016.76
2018-01-28T05:35:38.760Z,1016.75
2018-01-28T05:36:19.347Z,1016.73
2018-01-28T05:36:59.948Z,1016.72
2018-01-28T05:37:40.597Z,1016.74
2018-01-28T05:38:21.220Z,1016.8
2018-01-28T05:39:01.812Z,1016.72
2018-01-28T05:39:42.464Z,1016.77
2018-01-28T05:40:23.048Z,1016.78
2018-01-28T05:41:03.646Z,1016.81
2018-01-28T05:41:44.222Z,1016.72
2018-01-28T05:42:24.879Z,1016.94
2018-01-28T05:43:05.492Z,1016.9
2018-01-28T05:43:46.102Z,1016.87
2018-01-28T05:44:26.710Z,1016.91
2018-01-28T05:45:07.323Z,1016.94
2018-01-28T05:45:47.972Z,1016.95
2018-01-28T05:46:28.602Z,1016.82
2018-01-28T05:47:09.167Z,1016.84
2018-01-28T05:47:49.779Z,1016.85
2018-01-28T05:48:30.391Z,1016.77
2018-01-28T05:49:10.977Z,1016.92
2018-01-28T05:49:51.572Z,1016.95
2018-01-28T05:50:32.163Z,1016.93
2018-01-28T05:51:12.761Z,1016.97
2018-01-28T05:51:53.347Z,1016.93
2018-01-28T05:52:33.958Z,1016.9
2018-01-28T05:53:14.563Z,1016.98
2018-01-28T05:53:55.166Z,1017.07
2018-01-28T05:54:35.763Z,1017.02
2018-01-28T05:55:16.340Z,1017.09
2018-01-28T05:55:56.927Z,1017.05
2018-01-28T05:56:37.547Z,1017.01
2018-01-28T05:57:18.129Z,1017.01
2018-01-28T05:57:58.745Z,1017.15
2018-01-28T05:58:39.362Z,1017.14
2018-01-28T05:59:19.972Z,1017.16
2018-01-28T06:00:00.575Z,1017.15
2018-01-28T06:00:41.155Z,1017.22
2018-01-28T06:01:21.755Z,1017.2
2018-01-28T06:02:02.354Z,1017.2
2018-01-28T06:02:43.008Z,1017.18
2018-01-28T06:03:23.588Z,1017.21
2018-01-28T06:04:04.175Z,1017.22
2018-01-28T06:04:44.780Z,1017.21
2018-01-28T06:05:25.403Z,1017.28
2018-01-28T06:06:05.995Z,1017.3
2018-01-28T06:06:46.608Z,1017.33
2018-01-28T06:07:27.192Z,1017.41
2018-01-28T06:08:07.794Z,1017.35
2018-01-28T06:08:48.389Z,1017.3
2018-01-28T06:09:28.998Z,1017.42
2018-01-28T06:10:09.617Z,1017.38
2018-01-28T06:10:50.240Z,1017.42
2018-01-28T06:11:30.846Z,1017.43
2018-01-28T06:12:11.457Z,1017.41
2018-01-28T06:12:52.033Z,1017.45
2018-01-28T06:13:32.640Z,1017.46
2018-01-28T06:14:13.241Z,1017.43
2018-01-28T06:14:53.831Z,1017.55
2018-01-28T06:15:34.461Z,1017.53
2018-01-28T06:16:15.052Z,1017.58
2018-01-28T06:16:55.633Z,1017.58
2018-01-28T06:17:36.237Z,1017.6
2018-01-28T06:18:16.808Z,1017.6
2018-01-28T06:18:57.399Z,1017.63
2018-01-28T06:19:38.006Z,1017.6
2018-01-28T06:20:18.593Z,1017.63
2018-01-28T06:20:59.200Z,1017.66
2018-01-28T06:21:39.802Z,1017.65
2018-01-28T06:22:20.414Z,1017.6
2018-01-28T06:23:01.003Z,1017.67
2018-01-28T06:23:41.604Z,1017.68
2018-01-28T06:24:22.212Z,1017.66
2018-01-28T06:25:02.809Z,1017.61
2018-01-28T06:25:43.426Z,1017.63
2018-01-28T06:26:24.055Z,1017.64
2018-01-28T06:27:04.653Z,1017.68
2018-01-28T06:27:45.259Z,1017.65
2018-01-28T06:28:25.863Z,1017.64
2018-01-28T06:29:06.473Z,1017.63
2018-01-28T06:31:19.267Z,1017.58
2018-01-28T06:31:59.876Z,1017.62
2018-01-28T06:32:40.443Z,1017.65
2018-01-28T06:33:21.024Z,1017.65
2018-01-28T06:34:01.612Z,1017.59
2018-01-28T06:34:42.183Z,1017.6
2018-01-28T06:35:22.757Z,1017.56
2018-01-28T06:36:03.385Z,1017.56
2018-01-28T06:36:44.042Z,1017.54
2018-01-28T06:37:24.653Z,1017.56
2018-01-28T06:38:05.248Z,1017.56
2018-01-28T06:38:45.858Z,1017.62
2018-01-28T06:39:26.450Z,1017.62
2018-01-28T06:40:07.056Z,1017.76
2018-01-28T06:40:47.648Z,1017.72
2018-01-28T06:41:28.232Z,1017.74
2018-01-28T06:42:08.815Z,1017.79
2018-01-28T06:42:49.394Z,1017.72
2018-01-28T06:43:30.006Z,1017.71
2018-01-28T06:44:10.599Z,1017.74
2018-01-28T06:44:51.208Z,1017.73
2018-01-28T06:45:31.803Z,1017.76
2018-01-28T06:46:12.400Z,1017.79
2018-01-28T06:46:52.973Z,1017.88
2018-01-28T06:47:33.541Z,1017.9
2018-01-28T06:48:14.108Z,1017.93
2018-01-28T06:48:54.698Z,1017.97
2018-01-28T06:49:35.311Z,1018.03
2018-01-28T06:50:15.913Z,1018.06
2018-01-28T06:50:56.516Z,1018.03
2018-01-28T06:51:37.110Z,1017.99
2018-01-28T06:52:17.756Z,1017.99
2018-01-28T06:52:58.357Z,1017.99
2018-01-28T06:53:38.959Z,1017.98
2018-01-28T06:54:19.551Z,1017.99
2018-01-28T06:55:00.165Z,1018
2018-01-28T06:55:40.743Z,1017.94
2018-01-28T06:56:21.333Z,1017.97
2018-01-28T06:57:01.917Z,1017.9
2018-01-28T06:57:42.524Z,1017.97
2018-01-28T06:58:23.130Z,1017.98
2018-01-28T06:59:03.702Z,1017.99
2018-01-28T06:59:44.312Z,1017.97
2018-01-28T07:00:24.900Z,1018.06
2018-01-28T07:01:05.478Z,1018.09
2018-01-28T07:01:46.087Z,1018.12
2018-01-28T07:02:26.657Z,1018.03
2018-01-28T07:03:07.236Z,1018.08
2018-01-28T07:03:47.826Z,1018.04
2018-01-28T07:04:28.409Z,1018.04
2018-01-28T07:05:08.995Z,1017.98
2018-01-28T07:05:49.594Z,1017.98
2018-01-28T07:06:30.202Z,1018.02
2018-01-28T07:07:10.799Z,1017.99
2018-01-28T07:07:51.400Z,1018
2018-01-28T07:08:31.989Z,1018
2018-01-28T07:09:12.694Z,1018.04
2018-01-28T07:09:53.283Z,1018.06
2018-01-28T07:10:33.876Z,1018.11
2018-01-28T07:11:14.462Z,1018.09
2018-01-28T07:11:55.045Z,1018.08
2018-01-28T07:12:35.629Z,1018.06
2018-01-28T07:13:16.214Z,1018.11
2018-01-28T07:13:56.826Z,1018.17
2018-01-28T07:14:37.409Z,1018.1
2018-01-28T07:15:18.030Z,1018.17
2018-01-28T07:15:58.597Z,1018.14
2018-01-28T07:16:39.185Z,1018.12
2018-01-28T07:17:19.766Z,1018.11
2018-01-28T07:18:00.343Z,1018.09
2018-01-28T07:18:40.947Z,1018.02
2018-01-28T07:19:21.521Z,1018.03
2018-01-28T07:20:02.094Z,1018.06
2018-01-28T07:20:42.725Z,1017.93
2018-01-28T07:21:23.299Z,1017.92
2018-01-28T07:22:03.898Z,1017.99
2018-01-28T07:22:44.490Z,1017.98
2018-01-28T07:23:25.076Z,1018.01
2018-01-28T07:24:05.678Z,1018
2018-01-28T07:24:46.269Z,1018.04
2018-01-28T07:25:26.881Z,1018.05
2018-01-28T07:26:07.491Z,1018.11
2018-01-28T07:26:48.098Z,1018.05
2018-01-28T07:27:28.689Z,1018.08
2018-01-28T07:28:09.299Z,1018.04
2018-01-28T07:28:50.168Z,1018.09
2018-01-28T07:29:30.932Z,1018.06
2018-01-28T07:30:11.570Z,1018.14
2018-01-28T07:30:52.891Z,1018.18
2018-01-28T07:31:34.288Z,1018.13
2018-01-28T07:32:15.194Z,1018.18
2018-01-28T07:32:56.316Z,1018.13
2018-01-28T07:33:36.963Z,1018.17
2018-01-28T07:34:17.673Z,1018.23
2018-01-28T07:34:58.281Z,1018.21
2018-01-28T07:35:38.926Z,1018.21
2018-01-28T07:36:19.525Z,1018.29
2018-01-28T07:37:00.157Z,1018.29
2018-01-28T07:37:40.738Z,1018.26
2018-01-28T07:38:21.354Z,1018.26
2018-01-28T07:39:01.995Z,1018.26
2018-01-28T07:39:42.779Z,1018.27
2018-01-28T07:40:23.351Z,1018.32
2018-01-28T07:41:04.011Z,1018.3
2018-01-28T07:41:44.613Z,1018.3
2018-01-28T07:42:25.210Z,1018.3
2018-01-28T07:43:05.826Z,1018.28
2018-01-28T07:43:46.374Z,1018.35
2018-01-28T07:44:26.956Z,1018.31
2018-01-28T07:45:07.536Z,1018.28
2018-01-28T07:45:48.193Z,1018.27
2018-01-28T07:46:28.864Z,1018.24
2018-01-28T07:47:09.457Z,1018.14
2018-01-28T07:47:50.069Z,1018.25
2018-01-28T07:48:30.681Z,1018.25
2018-01-28T07:49:11.263Z,1018.22
2018-01-28T07:49:51.875Z,1018.21
2018-01-28T07:50:32.523Z,1018.15
2018-01-28T07:51:13.124Z,1018.16
2018-01-28T07:51:53.687Z,1018.13
2018-01-28T07:52:34.281Z,1018.15
2018-01-28T07:53:14.884Z,1018.19
2018-01-28T07:53:55.478Z,1018.23
2018-01-28T07:54:36.086Z,1018.16
2018-01-28T07:55:16.795Z,1018.21
2018-01-28T07:55:57.393Z,1018.21
2018-01-28T07:56:38.021Z,1018.26
2018-01-28T07:57:18.781Z,1018.28
2018-01-28T07:57:59.392Z,1018.28
2018-01-28T07:58:40.105Z,1018.29
2018-01-28T07:59:20.701Z,1018.31
2018-01-28T08:00:01.308Z,1018.4
2018-01-28T08:00:41.968Z,1018.31
2018-01-28T08:01:22.616Z,1018.21
2018-01-28T08:02:03.240Z,1018.16
2018-01-28T08:02:43.810Z,1018.26
2018-01-28T08:03:24.414Z,1018.3
2018-01-28T08:04:05.066Z,1018.24
2018-01-28T08:04:45.696Z,1018.3
2018-01-28T08:05:26.261Z,1018.32
2018-01-28T08:06:06.871Z,1018.39
2018-01-28T08:06:47.428Z,1018.41
2018-01-28T08:07:28.013Z,1018.41
2018-01-28T08:08:08.608Z,1018.34
2018-01-28T08:08:49.172Z,1018.42
2018-01-28T08:09:29.798Z,1018.38
2018-01-28T08:10:10.395Z,1018.38
2018-01-28T08:10:50.976Z,1018.37
2018-01-28T08:11:31.545Z,1018.39
2018-01-28T08:12:12.133Z,1018.36
2018-01-28T08:12:52.733Z,1018.23
2018-01-28T08:13:33.342Z,1018.25
2018-01-28T08:14:13.997Z,1018.27
2018-01-28T08:14:54.541Z,1018.35
2018-01-28T08:15:35.138Z,1018.3
2018-01-28T08:16:15.694Z,1018.39
2018-01-28T08:16:56.294Z,1018.34
2018-01-28T08:17:36.842Z,1018.38
2018-01-28T08:18:17.446Z,1018.38
2018-01-28T08:18:58.014Z,1018.29
2018-01-28T08:19:38.632Z,1018.34
2018-01-28T08:20:19.192Z,1018.34
2018-01-28T08:20:59.766Z,1018.31
2018-01-28T08:21:40.410Z,1018.38
2018-01-28T08:22:20.937Z,1018.37
2018-01-28T08:23:01.546Z,1018.37
2018-01-28T08:23:42.100Z,1018.46
2018-01-28T08:24:22.680Z,1018.44
2018-01-28T08:25:03.253Z,1018.42
2018-01-28T08:25:43.822Z,1018.38
2018-01-28T08:26:24.400Z,1018.42
2018-01-28T08:27:04.962Z,1018.38
2018-01-28T08:27:45.531Z,1018.42
2018-01-28T08:28:26.111Z,1018.41
2018-01-28T08:29:06.699Z,1018.38
2018-01-28T08:29:47.262Z,1018.41
2018-01-28T08:30:27.867Z,1018.46
2018-01-28T08:31:08.469Z,1018.48
2018-01-28T08:31:49.043Z,1018.62
2018-01-28T08:32:29.619Z,1018.51
2018-01-28T08:33:10.212Z,1018.51
2018-01-28T08:33:50.786Z,1018.58
2018-01-28T08:34:31.380Z,1018.56
2018-01-28T08:35:11.961Z,1018.55
2018-01-28T08:35:52.530Z,1018.58
2018-01-28T08:36:33.122Z,1018.52
2018-01-28T08:37:13.689Z,1018.5
2018-01-28T08:37:54.257Z,1018.55
2018-01-28T08:38:34.872Z,1018.61
2018-01-28T08:39:15.444Z,1018.56
2018-01-28T08:39:56.041Z,1018.59
2018-01-28T08:40:36.610Z,1018.63
2018-01-28T08:41:17.188Z,1018.59
2018-01-28T08:41:57.859Z,1018.66
2018-01-28T08:42:38.439Z,1018.64
2018-01-28T08:43:19.030Z,1018.6
2018-01-28T08:43:59.629Z,1018.66
2018-01-28T08:44:40.251Z,1018.58
2018-01-28T08:45:20.862Z,1018.52
2018-01-28T08:46:01.447Z,1018.48
2018-01-28T08:46:42.058Z,1018.52
2018-01-28T08:47:22.651Z,1018.5
2018-01-28T08:48:03.274Z,1018.52
2018-01-28T08:48:43.892Z,1018.5
2018-01-28T08:49:24.468Z,1018.55
2018-01-28T08:50:05.096Z,1018.59
2018-01-28T08:50:45.680Z,1018.67
2018-01-28T08:51:26.270Z,1018.65
2018-01-28T08:52:06.870Z,1018.68
2018-01-28T08:52:47.470Z,1018.67
2018-01-28T08:53:28.061Z,1018.67
2018-01-28T08:54:08.628Z,1018.7
2018-01-28T08:54:49.218Z,1018.7
2018-01-28T08:55:29.875Z,1018.74
2018-01-28T08:56:10.495Z,1018.67
2018-01-28T08:56:51.078Z,1018.67
2018-01-28T08:57:31.685Z,1018.71
2018-01-28T08:58:12.592Z,1018.75
2018-01-28T08:58:53.248Z,1018.71
2018-01-28T08:59:33.998Z,1018.73
2018-01-28T09:00:14.581Z,1018.72
2018-01-28T09:00:55.170Z,1018.66
2018-01-28T09:01:35.742Z,1018.64
2018-01-28T09:02:16.343Z,1018.63
2018-01-28T09:02:56.917Z,1018.65
2018-01-28T09:03:37.499Z,1018.66
2018-01-28T09:04:18.056Z,1018.71
2018-01-28T09:04:58.634Z,1018.68
2018-01-28T09:05:39.336Z,1018.66
2018-01-28T09:06:20.220Z,1018.73
2018-01-28T09:07:00.816Z,1018.65
2018-01-28T09:07:41.449Z,1018.63
2018-01-28T09:08:22.030Z,1018.64
2018-01-28T09:09:02.637Z,1018.66
2018-01-28T09:09:43.233Z,1018.65
2018-01-28T09:10:23.816Z,1018.64
2018-01-28T09:11:04.399Z,1018.72
2018-01-28T09:11:44.990Z,1018.73
2018-01-28T09:12:26.471Z,1018.84
2018-01-28T09:13:07.822Z,1018.8
2018-01-28T09:13:48.429Z,1018.87
2018-01-28T09:14:29.505Z,1018.83
2018-01-28T09:15:10.398Z,1018.88
2018-01-28T09:15:51.630Z,1018.9
2018-01-28T09:16:32.812Z,1018.94
2018-01-28T09:17:13.633Z,1018.87
2018-01-28T09:17:54.547Z,1018.9
2018-01-28T09:18:35.138Z,1018.86
2018-01-28T09:19:15.726Z,1018.92
2018-01-28T09:19:56.317Z,1018.91
2018-01-28T09:20:36.903Z,1018.98
2018-01-28T09:21:17.516Z,1018.9
2018-01-28T09:21:58.092Z,1019.02
2018-01-28T09:22:38.730Z,1018.99
2018-01-28T09:23:19.379Z,1019.03
2018-01-28T09:23:59.948Z,1019.03
2018-01-28T09:24:40.533Z,1019.04
2018-01-28T09:25:21.127Z,1019.05
2018-01-28T09:26:01.732Z,1019.03
2018-01-28T09:26:42.336Z,1019.12
2018-01-28T09:27:22.939Z,1019.15
2018-01-28T09:28:03.536Z,1019.11
2018-01-28T09:28:44.159Z,1019.01
2018-01-28T09:29:24.738Z,1018.97
2018-01-28T09:30:05.345Z,1019.03
2018-01-28T09:30:45.942Z,1019.03
2018-01-28T09:31:26.550Z,1019.04
2018-01-28T09:32:07.172Z,1019.09
2018-01-28T09:32:47.760Z,1019.03
2018-01-28T09:33:28.364Z,1019.09
2018-01-28T09:34:09.041Z,1019.11
2018-01-28T09:34:49.614Z,1019.09
2018-01-28T09:35:30.237Z,1019.13
2018-01-28T09:36:10.851Z,1019.12
2018-01-28T09:36:51.441Z,1019.15
2018-01-28T09:37:32.030Z,1019.18
2018-01-28T09:38:12.617Z,1019.16
2018-01-28T09:38:53.217Z,1019.18
2018-01-28T09:39:33.848Z,1019.19
2018-01-28T09:40:14.431Z,1019.22
2018-01-28T09:40:55.044Z,1019.3
2018-01-28T09:41:35.648Z,1019.36
2018-01-28T09:42:16.348Z,1019.36
2018-01-28T09:42:56.856Z,1019.35
2018-01-28T09:43:37.449Z,1019.4
2018-01-28T09:44:18.043Z,1019.42
2018-01-28T09:44:58.629Z,1019.39
2018-01-28T09:45:39.210Z,1019.36
2018-01-28T09:46:19.799Z,1019.31
2018-01-28T09:47:00.395Z,1019.29
2018-01-28T09:47:41.018Z,1019.28
2018-01-28T09:48:21.857Z,1019.32
2018-01-28T09:49:02.509Z,1019.32
2018-01-28T09:49:43.082Z,1019.32
2018-01-28T09:50:23.685Z,1019.35
2018-01-28T09:51:04.302Z,1019.41
2018-01-28T09:51:44.899Z,1019.37
2018-01-28T09:52:25.498Z,1019.46
2018-01-28T09:53:06.088Z,1019.52
2018-01-28T09:53:46.686Z,1019.4
2018-01-28T09:54:27.289Z,1019.46
2018-01-28T09:55:07.906Z,1019.43
2018-01-28T09:55:48.531Z,1019.49
2018-01-28T09:56:29.138Z,1019.47
2018-01-28T09:57:09.721Z,1019.48
2018-01-28T09:57:50.315Z,1019.4
2018-01-28T09:58:30.897Z,1019.4
2018-01-28T09:59:11.500Z,1019.38
2018-01-28T09:59:52.102Z,1019.46
2018-01-28T10:00:32.708Z,1019.4
2018-01-28T10:01:13.312Z,1019.4
2018-01-28T10:01:53.891Z,1019.35
2018-01-28T10:02:34.482Z,1019.41
2018-01-28T10:03:15.098Z,1019.37
2018-01-28T10:03:55.739Z,1019.4
2018-01-28T10:04:36.321Z,1019.36
2018-01-28T10:05:16.936Z,1019.35
2018-01-28T10:05:57.532Z,1019.32
2018-01-28T10:06:38.120Z,1019.26
2018-01-28T10:07:18.703Z,1019.2
2018-01-28T10:07:59.319Z,1019.3
2018-01-28T10:08:39.917Z,1019.29
2018-01-28T10:09:20.525Z,1019.32
2018-01-28T10:10:01.146Z,1019.29
2018-01-28T10:10:41.729Z,1019.25
2018-01-28T10:11:22.310Z,1019.23
2018-01-28T10:12:02.918Z,1019.23
2018-01-28T10:12:43.507Z,1019.3
2018-01-28T10:13:24.140Z,1019.26
2018-01-28T10:14:04.764Z,1019.21
2018-01-28T10:14:45.342Z,1019.2
2018-01-28T10:15:25.964Z,1019.24
2018-01-28T10:16:06.584Z,1019.22
2018-01-28T10:16:47.175Z,1019.28
2018-01-28T10:17:27.770Z,1019.18
2018-01-28T10:18:08.387Z,1019.14
2018-01-28T10:18:48.977Z,1019.16
2018-01-28T10:19:29.555Z,1019.18
2018-01-28T10:20:10.177Z,1019.14
2018-01-28T10:20:50.747Z,1019.2
2018-01-28T10:21:31.308Z,1019.19
2018-01-28T10:22:11.973Z,1019.21
2018-01-28T10:22:52.559Z,1019.22
2018-01-28T10:23:33.178Z,1019.1
2018-01-28T10:24:13.773Z,1019.15
2018-01-28T10:24:54.365Z,1019.18
2018-01-28T10:25:34.950Z,1019.15
2018-01-28T10:26:15.551Z,1019.16
2018-01-28T10:26:56.202Z,1019.19
2018-01-28T10:27:36.935Z,1019.21
2018-01-28T10:28:17.562Z,1019.23
2018-01-28T10:28:58.184Z,1019.24
2018-01-28T10:29:38.774Z,1019.15
2018-01-28T10:30:19.355Z,1019.1
2018-01-28T10:31:00.029Z,1019.12
2018-01-28T10:31:40.617Z,1019.14
2018-01-28T10:32:21.272Z,1019.12
2018-01-28T10:33:01.879Z,1019.14
2018-01-28T10:33:42.520Z,1019.12
2018-01-28T10:34:23.067Z,1019.12
2018-01-28T10:35:03.660Z,1019.15
2018-01-28T10:35:44.249Z,1019.17
2018-01-28T10:36:24.843Z,1019.16
2018-01-28T10:37:05.435Z,1019.18
2018-01-28T10:37:46.049Z,1019.26
2018-01-28T10:38:26.631Z,1019.22
2018-01-28T10:39:07.220Z,1019.23
2018-01-28T10:39:47.812Z,1019.18
2018-01-28T10:40:28.396Z,1019.2
2018-01-28T10:41:09.025Z,1019.26
2018-01-28T10:41:49.564Z,1019.29
2018-01-28T10:42:30.167Z,1019.27
2018-01-28T10:43:10.770Z,1019.25
2018-01-28T10:43:51.370Z,1019.28
2018-01-28T10:44:31.977Z,1019.23
2018-01-28T10:45:12.571Z,1019.24
2018-01-28T10:45:53.180Z,1019.22
2018-01-28T10:46:33.778Z,1019.26
2018-01-28T10:47:14.363Z,1019.37
2018-01-28T10:47:54.953Z,1019.34
2018-01-28T10:48:35.552Z,1019.36
2018-01-28T10:49:16.156Z,1019.37
2018-01-28T10:49:56.731Z,1019.41
2018-01-28T10:50:37.316Z,1019.28
2018-01-28T10:51:17.894Z,1019.33
2018-01-28T10:51:58.482Z,1019.3
2018-01-28T10:52:39.092Z,1019.36
2018-01-28T10:53:19.675Z,1019.32
2018-01-28T10:54:00.269Z,1019.35
2018-01-28T10:54:40.893Z,1019.31
2018-01-28T10:55:21.511Z,1019.35
2018-01-28T10:56:02.099Z,1019.31
2018-01-28T10:56:42.698Z,1019.29
2018-01-28T10:57:23.275Z,1019.22
2018-01-28T10:58:03.890Z,1019.27
2018-01-28T10:58:44.489Z,1019.25
2018-01-28T10:59:25.096Z,1019.22
2018-01-28T11:00:05.695Z,1019.22
2018-01-28T11:00:46.264Z,1019.28
2018-01-28T11:01:26.855Z,1019.2
2018-01-28T11:02:07.439Z,1019.17
2018-01-28T11:02:48.063Z,1019.19
2018-01-28T11:03:28.681Z,1019.13
2018-01-28T11:04:09.297Z,1019.24
2018-01-28T11:04:49.884Z,1019.16
2018-01-28T11:05:30.510Z,1019.24
2018-01-28T11:06:11.136Z,1019.36
2018-01-28T11:06:51.735Z,1019.38
2018-01-28T11:07:32.311Z,1019.35
2018-01-28T11:08:12.916Z,1019.38
2018-01-28T11:08:53.501Z,1019.4
2018-01-28T11:09:34.077Z,1019.39
2018-01-28T11:10:14.670Z,1019.48
2018-01-28T11:10:55.262Z,1019.35
2018-01-28T11:11:35.883Z,1019.44
2018-01-28T11:12:16.469Z,1019.41
2018-01-28T11:12:57.050Z,1019.42
2018-01-28T11:13:37.657Z,1019.44
2018-01-28T11:14:18.291Z,1019.54
2018-01-28T11:14:58.864Z,1019.57
2018-01-28T11:15:39.482Z,1019.57
2018-01-28T11:16:20.082Z,1019.58
2018-01-28T11:17:00.677Z,1019.57
2018-01-28T11:17:41.255Z,1019.56
2018-01-28T11:18:21.887Z,1019.51
2018-01-28T11:19:02.517Z,1019.52
2018-01-28T11:19:43.117Z,1019.49
2018-01-28T11:20:23.706Z,1019.48
2018-01-28T11:21:04.305Z,1019.47
2018-01-28T11:21:44.998Z,1019.46
2018-01-28T11:22:25.608Z,1019.46
2018-01-28T11:23:06.226Z,1019.51
2018-01-28T11:23:46.822Z,1019.52
2018-01-28T11:24:27.440Z,1019.47
2018-01-28T11:25:08.089Z,1019.48
2018-01-28T11:25:48.679Z,1019.46
2018-01-28T11:26:29.271Z,1019.49
2018-01-28T11:27:09.862Z,1019.49
2018-01-28T11:27:50.446Z,1019.44
2018-01-28T11:28:31.035Z,1019.42
2018-01-28T11:29:11.635Z,1019.43
2018-01-28T11:29:52.259Z,1019.38
2018-01-28T11:30:32.864Z,1019.44
2018-01-28T11:31:13.502Z,1019.49
2018-01-28T11:31:54.113Z,1019.36
2018-01-28T11:32:34.689Z,1019.42
2018-01-28T11:33:15.274Z,1019.45
2018-01-28T11:33:55.896Z,1019.44
2018-01-28T11:34:36.494Z,1019.43
2018-01-28T11:35:17.080Z,1019.52
2018-01-28T11:35:57.666Z,1019.47
2018-01-28T11:36:38.310Z,1019.32
2018-01-28T11:37:18.936Z,1019.32
2018-01-28T11:37:59.631Z,1019.31
2018-01-28T11:38:40.245Z,1019.35
2018-01-28T11:39:20.859Z,1019.22
2018-01-28T11:40:01.467Z,1019.23
2018-01-28T11:40:42.090Z,1019.19
2018-01-28T11:41:22.741Z,1019.17
2018-01-28T11:42:03.354Z,1019.24
2018-01-28T11:42:43.996Z,1019.25
2018-01-28T11:43:24.663Z,1019.2
2018-01-28T11:44:05.241Z,1019.26
2018-01-28T11:44:45.829Z,1019.27
2018-01-28T11:45:26.424Z,1019.29
2018-01-28T11:46:07.053Z,1019.29
2018-01-28T11:46:47.641Z,1019.31
2018-01-28T11:47:28.256Z,1019.28
2018-01-28T11:48:08.851Z,1019.34
2018-01-28T11:48:49.450Z,1019.36
2018-01-28T11:49:30.027Z,1019.29
2018-01-28T11:50:10.593Z,1019.35
2018-01-28T11:50:51.172Z,1019.34
2018-01-28T11:51:31.744Z,1019.37
2018-01-28T11:52:12.315Z,1019.36
2018-01-28T11:52:52.905Z,1019.38